Time;durP1;ratioP1;P1;durP2;ratioP2;P2;SDS_P1;SDS_P2;PMS_P1;PMS_P2;Temp;Humidity;BMP_temperature;BMP_pressure;BME280_temperature;BME280_humidity;BME280_pressure;Samples;Min_cycle;Max_cycle;Signal;HPM_P1;HPM_P2
2023/04/28 00:00:13;;;;;;;10.02;4.82;;;;;;;-145.50;100.00;65435.88;5047630;28;20140;-73
2023/04/28 00:02:39;;;;;;;7.45;4.22;;;;;;;-145.50;100.00;65435.88;5040713;28;20060;-73
2023/04/28 00:05:06;;;;;;;8.13;4.72;;;;;;;-145.50;100.00;65435.88;5030014;28;20107;-73
2023/04/28 00:07:33;;;;;;;8.27;5.03;;;;;;;-145.50;100.00;65435.88;5046016;28;20053;-73
2023/04/28 00:09:59;;;;;;;7.15;4.43;;;;;;;-145.50;100.00;65435.88;5046502;28;20045;-73
2023/04/28 00:12:26;;;;;;;6.68;4.10;;;;;;;-145.50;100.00;65435.88;5047248;28;20056;-77
2023/04/28 00:14:52;;;;;;;9.18;4.97;;;;;;;-145.50;100.00;65435.88;5019212;28;20093;-73
2023/04/28 00:17:19;;;;;;;8.80;5.00;;;;;;;-145.50;100.00;65435.88;5045432;28;20163;-73
2023/04/28 00:19:45;;;;;;;7.63;4.32;;;;;;;-145.50;100.00;65435.88;5052321;28;20076;-73
2023/04/28 00:22:12;;;;;;;9.77;4.82;;;;;;;-145.50;100.00;65435.88;5034036;28;20064;-73
2023/04/28 00:24:40;;;;;;;8.32;4.80;;;;;;;-145.50;100.00;65435.88;5047103;28;20056;-73
2023/04/28 00:27:07;;;;;;;9.43;5.05;;;;;;;-145.50;100.00;65435.88;5049060;28;20052;-72
2023/04/28 00:29:33;;;;;;;8.50;4.28;;;;;;;-145.50;100.00;65435.88;5048838;28;20049;-72
2023/04/28 00:32:00;;;;;;;7.57;4.38;;;;;;;-145.50;100.00;65435.88;5030753;28;20077;-73
2023/04/28 00:34:28;;;;;;;7.70;4.88;;;;;;;-145.50;100.00;65435.88;5019804;28;20132;-72
2023/04/28 00:36:56;;;;;;;6.30;3.20;;;;;;;-145.50;100.00;65435.88;5047544;28;20059;-72
2023/04/28 00:39:22;;;;;;;8.63;4.30;;;;;;;-145.50;100.00;65435.88;5029129;28;20059;-73
2023/04/28 00:41:49;;;;;;;6.97;4.20;;;;;;;-145.50;100.00;65435.88;5038369;28;20494;-72
2023/04/28 00:44:15;;;;;;;8.88;4.28;;;;;;;-145.50;100.00;65435.88;5046612;28;21538;-72
2023/04/28 00:46:42;;;;;;;7.57;4.18;;;;;;;-145.50;100.00;65435.88;5060809;28;20402;-74
2023/04/28 00:49:09;;;;;;;7.20;4.60;;;;;;;-145.50;100.00;65435.88;5055871;28;20406;-74
2023/04/28 00:51:36;;;;;;;10.35;4.18;;;;;;;-145.50;100.00;65435.88;5041311;28;20063;-74
2023/04/28 00:54:04;;;;;;;7.40;4.20;;;;;;;-145.50;100.00;65435.88;5053636;28;20431;-74
2023/04/28 00:56:31;;;;;;;6.43;4.43;;;;;;;-145.50;100.00;65435.88;5044041;28;20663;-74
2023/04/28 00:58:57;;;;;;;5.97;3.92;;;;;;;-145.50;100.00;65435.88;5053038;28;20057;-74
2023/04/28 01:01:24;;;;;;;6.93;3.95;;;;;;;-145.50;100.00;65435.88;5043660;28;20073;-74
2023/04/28 01:03:51;;;;;;;7.30;3.72;;;;;;;-145.50;100.00;65435.88;5058322;28;20041;-74
2023/04/28 01:06:19;;;;;;;7.68;4.32;;;;;;;-145.50;100.00;65435.88;5047393;28;20698;-74
2023/04/28 01:08:49;;;;;;;8.68;4.45;;;;;;;-145.50;100.00;65435.88;5048158;28;20060;-73
2023/04/28 01:11:16;;;;;;;9.48;4.50;;;;;;;-145.50;100.00;65435.88;5059092;28;20456;-74
2023/04/28 01:13:43;;;;;;;8.02;4.25;;;;;;;-145.50;100.00;65435.88;5041646;28;20080;-74
2023/04/28 01:16:10;;;;;;;8.88;4.28;;;;;;;-145.50;100.00;65435.88;5056634;28;20114;-73
2023/04/28 01:18:41;;;;;;;7.68;3.75;;;;;;;-145.50;100.00;65435.88;5044722;28;20119;-73
2023/04/28 01:21:08;;;;;;;9.52;4.82;;;;;;;-145.50;100.00;65435.88;5037867;28;20155;-74
2023/04/28 01:23:34;;;;;;;6.75;4.47;;;;;;;-145.50;100.00;65435.88;5061533;28;20400;-73
2023/04/28 01:26:02;;;;;;;7.95;4.47;;;;;;;-145.50;100.00;65435.88;5045456;28;20140;-74
2023/04/28 01:28:28;;;;;;;11.57;4.97;;;;;;;-145.50;100.00;65435.88;5055849;28;20122;-74
2023/04/28 01:30:55;;;;;;;7.95;4.85;;;;;;;-145.50;100.00;65435.88;5029439;28;20055;-74
2023/04/28 01:33:22;;;;;;;7.57;4.82;;;;;;;-145.50;100.00;65435.88;5033818;28;20114;-73
2023/04/28 01:35:48;;;;;;;9.60;5.15;;;;;;;-145.50;100.00;65435.88;5026304;28;20053;-74
2023/04/28 01:38:15;;;;;;;9.10;4.93;;;;;;;-145.50;100.00;65435.88;5067135;28;20048;-73
2023/04/28 01:40:41;;;;;;;7.85;5.10;;;;;;;-145.50;100.00;65435.88;5073368;28;20492;-74
2023/04/28 01:43:08;;;;;;;9.45;5.28;;;;;;;-145.50;100.00;65435.88;5046199;28;20573;-73
2023/04/28 01:45:34;;;;;;;7.90;4.72;;;;;;;-145.50;100.00;65435.88;5024793;28;20063;-73
2023/04/28 01:48:01;;;;;;;8.77;4.90;;;;;;;-145.50;100.00;65435.88;5037366;28;20045;-74
2023/04/28 01:50:27;;;;;;;8.38;5.15;;;;;;;-145.50;100.00;65435.88;5049228;28;20189;-74
2023/04/28 01:52:54;;;;;;;8.55;4.72;;;;;;;-145.50;100.00;65435.88;5046119;28;20064;-73
2023/04/28 01:55:20;;;;;;;6.95;4.80;;;;;;;-145.50;100.00;65435.88;5056170;28;20429;-74
2023/04/28 01:57:47;;;;;;;12.77;5.55;;;;;;;-145.50;100.00;65435.88;5054304;28;20092;-74
2023/04/28 02:00:13;;;;;;;10.52;4.90;;;;;;;-145.50;100.00;65435.88;5037967;28;20053;-74
2023/04/28 02:02:40;;;;;;;7.93;4.95;;;;;;;-145.50;100.00;65435.88;5050019;28;20080;-74
2023/04/28 02:05:07;;;;;;;9.18;4.95;;;;;;;-145.50;100.00;65435.88;5046331;28;20044;-74
2023/04/28 02:07:34;;;;;;;8.73;5.07;;;;;;;-145.50;100.00;65435.88;5031403;28;20056;-73
2023/04/28 02:10:00;;;;;;;9.82;5.47;;;;;;;-145.50;100.00;65435.88;5029746;28;20049;-73
2023/04/28 02:12:26;;;;;;;6.60;4.53;;;;;;;-145.50;100.00;65435.88;5027632;28;20048;-74
2023/04/28 02:14:53;;;;;;;7.28;4.55;;;;;;;-145.50;100.00;65435.88;5054609;28;20117;-73
2023/04/28 02:17:19;;;;;;;11.38;4.85;;;;;;;-145.50;100.00;65435.88;5047136;28;20116;-73
2023/04/28 02:19:46;;;;;;;6.78;4.40;;;;;;;-145.50;100.00;65435.88;5031953;28;20045;-74
2023/04/28 02:22:12;;;;;;;11.40;5.18;;;;;;;-145.50;100.00;65435.88;5050909;28;20155;-73
2023/04/28 02:24:39;;;;;;;5.70;3.63;;;;;;;-145.50;100.00;65435.88;5048073;28;20164;-74
2023/04/28 02:27:05;;;;;;;10.90;5.75;;;;;;;-145.50;100.00;65435.88;5044445;28;20053;-73
2023/04/28 02:29:32;;;;;;;7.63;4.47;;;;;;;-145.50;100.00;65435.88;5046097;28;20059;-74
2023/04/28 02:31:59;;;;;;;6.30;4.25;;;;;;;-145.50;100.00;65435.88;5029440;28;20107;-73
2023/04/28 02:34:25;;;;;;;6.00;4.18;;;;;;;-145.50;100.00;65435.88;5026853;28;20513;-71
2023/04/28 02:36:52;;;;;;;7.25;4.30;;;;;;;-145.50;100.00;65435.88;5049505;28;20087;-70
2023/04/28 02:39:20;;;;;;;7.53;4.90;;;;;;;-145.50;100.00;65435.88;5046518;28;20056;-72
2023/04/28 02:41:47;;;;;;;7.30;4.45;;;;;;;-145.50;100.00;65435.88;5052598;28;20149;-74
2023/04/28 02:44:13;;;;;;;9.57;4.97;;;;;;;-145.50;100.00;65435.88;5050008;28;20052;-74
2023/04/28 02:46:41;;;;;;;6.63;4.47;;;;;;;-145.50;100.00;65435.88;5021482;28;20072;-74
2023/04/28 02:49:07;;;;;;;5.65;4.53;;;;;;;-145.50;100.00;65435.88;5034693;28;20048;-73
2023/04/28 02:51:34;;;;;;;8.52;4.72;;;;;;;-145.50;100.00;65435.88;5021985;28;20097;-74
2023/04/28 02:54:00;;;;;;;7.68;4.70;;;;;;;-145.50;100.00;65435.88;5048710;28;20594;-74
2023/04/28 02:56:28;;;;;;;8.40;4.85;;;;;;;-145.50;100.00;65435.88;5041876;28;20048;-74
2023/04/28 02:58:55;;;;;;;6.40;4.53;;;;;;;-145.50;100.00;65435.88;5042103;28;20143;-73
2023/04/28 03:01:22;;;;;;;7.80;4.75;;;;;;;-145.50;100.00;65435.88;5047887;28;20060;-74
2023/04/28 03:03:49;;;;;;;7.22;4.55;;;;;;;-145.50;100.00;65435.88;5043530;28;20052;-73
2023/04/28 03:06:15;;;;;;;13.45;4.57;;;;;;;-145.50;100.00;65435.88;5049082;28;20520;-74
2023/04/28 03:08:42;;;;;;;9.25;5.40;;;;;;;-145.50;100.00;65435.88;5040212;28;20052;-74
2023/04/28 03:11:09;;;;;;;8.80;4.50;;;;;;;-145.50;100.00;65435.88;5028519;28;20083;-74
2023/04/28 03:13:36;;;;;;;7.95;4.55;;;;;;;-145.50;100.00;65435.88;5023467;28;20045;-73
2023/04/28 03:16:03;;;;;;;6.38;4.50;;;;;;;-145.50;100.00;65435.88;5031017;28;20060;-74
2023/04/28 03:18:30;;;;;;;7.50;4.88;;;;;;;-145.50;100.00;65435.88;5048997;28;20106;-74
2023/04/28 03:20:56;;;;;;;9.65;4.78;;;;;;;-145.50;100.00;65435.88;5036210;28;20059;-74
2023/04/28 03:23:23;;;;;;;8.95;4.97;;;;;;;-145.50;100.00;65435.88;5053771;28;20064;-74
2023/04/28 03:25:49;;;;;;;8.77;5.20;;;;;;;-145.50;100.00;65435.88;5047640;28;20053;-75
2023/04/28 03:28:16;;;;;;;7.03;4.47;;;;;;;-145.50;100.00;65435.88;5055524;28;20465;-73
2023/04/28 03:30:43;;;;;;;7.72;4.70;;;;;;;-145.50;100.00;65435.88;5026536;28;20537;-73
2023/04/28 03:33:12;;;;;;;8.85;5.22;;;;;;;-145.50;100.00;65435.88;5052326;28;20048;-73
2023/04/28 03:35:42;;;;;;;12.25;5.70;;;;;;;-145.50;100.00;65435.88;5045770;28;20568;-74
2023/04/28 03:38:08;;;;;;;8.73;5.05;;;;;;;-145.50;100.00;65435.88;5022302;28;20049;-72
2023/04/28 03:40:35;;;;;;;8.70;5.45;;;;;;;-145.50;100.00;65435.88;5047470;28;20053;-73
2023/04/28 03:43:02;;;;;;;9.25;5.10;;;;;;;-145.50;100.00;65435.88;5045725;28;20052;-74
2023/04/28 03:45:30;;;;;;;9.68;5.22;;;;;;;-145.50;100.00;65435.88;5007289;28;20502;-74
2023/04/28 03:47:57;;;;;;;9.02;4.95;;;;;;;-145.50;100.00;65435.88;5036008;28;20394;-73
2023/04/28 03:50:23;;;;;;;8.52;5.13;;;;;;;-145.50;100.00;65435.88;5041700;28;20559;-74
2023/04/28 03:52:52;;;;;;;;;;;;;;;-145.50;100.00;65435.88;5039107;28;20091;-73
2023/04/28 03:55:18;;;;;;;8.40;5.22;;;;;;;-145.50;100.00;65435.88;5010883;28;20412;-73
2023/04/28 03:57:44;;;;;;;7.70;5.22;;;;;;;-145.50;100.00;65435.88;5045961;28;20085;-73
2023/04/28 04:00:12;;;;;;;6.97;4.57;;;;;;;-145.50;100.00;65435.88;5039297;28;20124;-73
2023/04/28 04:02:38;;;;;;;9.18;5.30;;;;;;;-145.50;100.00;65435.88;5044967;28;20084;-74
2023/04/28 04:05:05;;;;;;;6.88;5.13;;;;;;;-145.50;100.00;65435.88;5052048;28;20489;-73
2023/04/28 04:07:32;;;;;;;8.82;5.20;;;;;;;-145.50;100.00;65435.88;5028944;28;20453;-74
2023/04/28 04:09:58;;;;;;;8.35;5.22;;;;;;;-145.50;100.00;65435.88;5049004;28;20053;-74
2023/04/28 04:12:27;;;;;;;7.90;4.72;;;;;;;-145.50;100.00;65435.88;5039722;28;20044;-74
2023/04/28 04:14:53;;;;;;;8.77;4.97;;;;;;;-145.50;100.00;65435.88;5046810;28;20041;-73
2023/04/28 04:17:20;;;;;;;9.80;5.07;;;;;;;-145.50;100.00;65435.88;5033394;28;20279;-73
2023/04/28 04:19:46;;;;;;;7.55;4.95;;;;;;;-145.50;100.00;65435.88;5047746;28;20049;-74
2023/04/28 04:22:13;;;;;;;9.15;5.05;;;;;;;-145.50;100.00;65435.88;5031037;28;20088;-73
2023/04/28 04:24:39;;;;;;;9.73;5.07;;;;;;;-145.50;100.00;65435.88;5046183;28;20085;-74
2023/04/28 04:27:06;;;;;;;6.28;4.85;;;;;;;-145.50;100.00;65435.88;5033253;28;20051;-73
2023/04/28 04:29:32;;;;;;;9.32;4.95;;;;;;;-145.50;100.00;65435.88;5037594;28;20052;-73
2023/04/28 04:31:59;;;;;;;9.45;5.22;;;;;;;-145.50;100.00;65435.88;5047935;28;20076;-74
2023/04/28 04:34:25;;;;;;;8.52;5.10;;;;;;;-145.50;100.00;65435.88;5043544;28;20549;-74
2023/04/28 04:36:52;;;;;;;10.35;5.43;;;;;;;-145.50;100.00;65435.88;5053880;28;20426;-73
2023/04/28 04:39:18;;;;;;;7.53;4.35;;;;;;;-145.50;100.00;65435.88;5046436;28;20057;-74
2023/04/28 04:41:45;;;;;;;9.10;5.68;;;;;;;-145.50;100.00;65435.88;5040054;28;20565;-73
2023/04/28 04:44:11;;;;;;;7.32;5.15;;;;;;;-145.50;100.00;65435.88;5046850;28;20048;-73
2023/04/28 04:46:39;;;;;;;10.65;6.05;;;;;;;-145.50;100.00;65435.88;5018580;28;20048;-74
2023/04/28 04:49:06;;;;;;;9.05;4.88;;;;;;;-145.50;100.00;65435.88;5030135;28;20049;-72
2023/04/28 04:51:32;;;;;;;10.57;6.00;;;;;;;-145.50;100.00;65435.88;5048287;28;20132;-72
2023/04/28 04:53:59;;;;;;;11.55;6.32;;;;;;;-145.50;100.00;65435.88;5030685;28;20061;-72
2023/04/28 04:56:25;;;;;;;9.30;5.45;;;;;;;-145.50;100.00;65435.88;5017491;28;20053;-71
2023/04/28 04:58:52;;;;;;;8.88;5.72;;;;;;;-145.50;100.00;65435.88;5034973;28;20045;-72
2023/04/28 05:01:18;;;;;;;9.30;5.90;;;;;;;-145.50;100.00;65435.88;5059329;28;20053;-72
2023/04/28 05:03:45;;;;;;;9.02;6.10;;;;;;;-145.50;100.00;65435.88;5038159;28;20685;-72
2023/04/28 05:06:12;;;;;;;10.98;5.63;;;;;;;-145.50;100.00;65435.88;5052617;28;20463;-72
2023/04/28 05:08:38;;;;;;;9.20;5.72;;;;;;;-145.50;100.00;65435.88;5058538;28;20041;-72
2023/04/28 05:11:05;;;;;;;13.07;6.22;;;;;;;-145.50;100.00;65435.88;5037959;28;20462;-72
2023/04/28 05:13:31;;;;;;;8.75;5.78;;;;;;;-145.50;100.00;65435.88;5023467;28;20063;-72
2023/04/28 05:15:58;;;;;;;7.03;4.70;;;;;;;-145.50;100.00;65435.88;5039690;28;20065;-72
2023/04/28 05:18:24;;;;;;;9.10;6.47;;;;;;;-145.50;100.00;65435.88;5047157;28;20076;-72
2023/04/28 05:20:50;;;;;;;9.55;6.57;;;;;;;-145.50;100.00;65435.88;5039524;28;20079;-72
2023/04/28 05:23:17;;;;;;;13.73;7.20;;;;;;;-145.50;100.00;65435.88;5045764;28;20049;-72
2023/04/28 05:25:46;;;;;;;11.70;6.88;;;;;;;-145.50;100.00;65435.88;5051932;28;20056;-72
2023/04/28 05:28:13;;;;;;;12.60;6.75;;;;;;;-145.50;100.00;65435.88;5009602;28;20076;-72
2023/04/28 05:30:40;;;;;;;12.85;6.80;;;;;;;-145.50;100.00;65435.88;5048665;28;20053;-72
2023/04/28 05:33:06;;;;;;;11.07;7.47;;;;;;;-145.50;100.00;65435.88;5048313;28;20539;-72
2023/04/28 05:35:33;;;;;;;13.65;7.75;;;;;;;-145.50;100.00;65435.88;5042070;28;20049;-72
2023/04/28 05:37:59;;;;;;;13.07;8.38;;;;;;;-145.50;100.00;65435.88;5043099;28;20052;-74
2023/04/28 05:40:27;;;;;;;14.50;8.15;;;;;;;-145.50;100.00;65435.88;5042383;28;20107;-73
2023/04/28 05:42:54;;;;;;;14.80;8.90;;;;;;;-145.50;100.00;65435.88;5044183;28;20056;-74
2023/04/28 05:45:20;;;;;;;14.95;8.18;;;;;;;-145.50;100.00;65435.88;5036308;28;20132;-74
2023/04/28 05:47:47;;;;;;;12.90;8.70;;;;;;;-145.50;100.00;65435.88;5052994;28;20048;-72
2023/04/28 05:50:17;;;;;;;13.88;7.85;;;;;;;-145.50;100.00;65435.88;5024778;28;20148;-73
2023/04/28 05:52:46;;;;;;;15.57;9.73;;;;;;;-145.50;100.00;65435.88;5048724;28;20385;-74
2023/04/28 05:55:12;;;;;;;17.10;10.60;;;;;;;-145.50;100.00;65435.88;5050039;28;20131;-74
2023/04/28 05:57:39;;;;;;;16.05;10.00;;;;;;;-145.50;100.00;65435.88;5043777;28;20060;-72
2023/04/28 06:00:18;;;;;;;15.82;9.38;;;;;;;-145.50;100.00;65435.88;5036700;28;20053;-74
2023/04/28 06:02:45;;;;;;;14.35;10.50;;;;;;;-145.50;100.00;65435.88;5050301;28;20586;-74
2023/04/28 06:05:12;;;;;;;15.45;9.88;;;;;;;-145.50;100.00;65435.88;5026526;28;20053;-74
2023/04/28 06:07:39;;;;;;;17.33;11.80;;;;;;;-145.50;100.00;65435.88;5045256;28;20049;-74
2023/04/28 06:10:06;;;;;;;17.38;11.45;;;;;;;-145.50;100.00;65435.88;5049165;28;20088;-74
2023/04/28 06:12:33;;;;;;;19.88;13.50;;;;;;;-145.50;100.00;65435.88;5049838;28;20053;-75
2023/04/28 06:14:59;;;;;;;27.80;14.52;;;;;;;-145.50;100.00;65435.88;5024092;28;20049;-75
2023/04/28 06:17:26;;;;;;;22.13;14.65;;;;;;;-145.50;100.00;65435.88;5049424;28;20486;-75
2023/04/28 06:19:53;;;;;;;22.77;13.45;;;;;;;-145.50;100.00;65435.88;5046153;28;20411;-74
2023/04/28 06:22:19;;;;;;;25.55;16.40;;;;;;;-145.50;100.00;65435.88;5054824;28;20135;-75
2023/04/28 06:24:46;;;;;;;22.00;14.40;;;;;;;-145.50;100.00;65435.88;5044773;28;20468;-75
2023/04/28 06:27:13;;;;;;;24.58;15.05;;;;;;;-145.50;100.00;65435.88;5057813;28;20053;-75
2023/04/28 06:29:39;;;;;;;20.63;15.65;;;;;;;-145.50;100.00;65435.88;5030591;28;20310;-75
2023/04/28 06:32:06;;;;;;;18.50;14.38;;;;;;;-145.50;100.00;65435.88;5044239;28;20052;-76
2023/04/28 06:34:34;;;;;;;22.02;15.27;;;;;;;-145.50;100.00;65435.88;5052754;28;20136;-72
2023/04/28 06:37:00;;;;;;;22.95;15.75;;;;;;;-145.50;100.00;65435.88;5019438;28;20063;-76
2023/04/28 06:39:28;;;;;;;22.98;15.20;;;;;;;-145.50;100.00;65435.88;5059180;28;20063;-75
2023/04/28 06:41:54;;;;;;;23.30;14.27;;;;;;;-145.50;100.00;65435.88;5026000;28;20053;-74
2023/04/28 06:44:21;;;;;;;17.15;12.43;;;;;;;-145.50;100.00;65435.88;5039561;28;20048;-74
2023/04/28 06:46:48;;;;;;;20.77;13.20;;;;;;;-145.50;100.00;65435.88;5048205;28;20390;-75
2023/04/28 06:49:14;;;;;;;19.60;12.85;;;;;;;-145.50;100.00;65435.88;5037139;28;20773;-73
2023/04/28 06:51:42;;;;;;;18.40;13.55;;;;;;;-145.50;100.00;65435.88;5032702;28;20049;-77
2023/04/28 06:54:09;;;;;;;18.52;13.02;;;;;;;-145.50;100.00;65435.88;5026523;28;20054;-76
2023/04/28 06:56:35;;;;;;;19.15;13.10;;;;;;;-145.50;100.00;65435.88;5045031;28;20044;-75
2023/04/28 06:59:02;;;;;;;21.13;13.73;;;;;;;-145.50;100.00;65435.88;5044219;28;20488;-73
2023/04/28 07:01:28;;;;;;;24.30;13.65;;;;;;;-145.50;100.00;65435.88;5041217;28;20095;-76
2023/04/28 07:03:55;;;;;;;20.52;13.23;;;;;;;-145.50;100.00;65435.88;5047898;28;20102;-75
2023/04/28 07:06:22;;;;;;;20.45;13.68;;;;;;;-145.50;100.00;65435.88;5044568;28;20132;-75
2023/04/28 07:08:49;;;;;;;18.35;13.35;;;;;;;-145.50;100.00;65435.88;5032183;28;20051;-75
2023/04/28 07:11:16;;;;;;;18.75;13.02;;;;;;;-145.50;100.00;65435.88;5042159;28;20056;-75
2023/04/28 07:13:42;;;;;;;19.38;13.45;;;;;;;-145.50;100.00;65435.88;5053308;28;20103;-75
2023/04/28 07:16:09;;;;;;;21.15;13.63;;;;;;;-145.50;100.00;65435.88;5027316;28;20377;-75
2023/04/28 07:18:36;;;;;;;19.80;14.45;;;;;;;-145.50;100.00;65435.88;5040036;28;20084;-73
2023/04/28 07:21:03;;;;;;;18.33;12.13;;;;;;;-145.50;100.00;65435.88;5039285;28;20087;-73
2023/04/28 07:23:31;;;;;;;21.53;13.93;;;;;;;-145.50;100.00;65435.88;5042724;28;20052;-74
2023/04/28 07:25:57;;;;;;;20.08;13.75;;;;;;;-145.50;100.00;65435.88;5057038;28;20715;-74
2023/04/28 07:28:24;;;;;;;13.90;10.25;;;;;;;-145.50;100.00;65435.88;5012623;28;20053;-73
2023/04/28 07:30:51;;;;;;;22.70;13.65;;;;;;;-145.50;100.00;65435.88;5052014;28;20128;-75
2023/04/28 07:33:17;;;;;;;19.05;12.85;;;;;;;-145.50;100.00;65435.88;5052615;28;20060;-74
2023/04/28 07:35:44;;;;;;;20.20;13.10;;;;;;;-145.50;100.00;65435.88;5045003;28;20041;-74
2023/04/28 07:38:10;;;;;;;20.63;13.05;;;;;;;-145.50;100.00;65435.88;5048547;28;20088;-75
2023/04/28 07:40:37;;;;;;;19.70;12.32;;;;;;;-145.50;100.00;65435.88;5023209;28;20508;-74
2023/04/28 07:43:04;;;;;;;17.77;13.48;;;;;;;-145.50;100.00;65435.88;5025291;28;20127;-75
2023/04/28 07:45:30;;;;;;;22.27;13.80;;;;;;;-145.50;100.00;65435.88;5040681;28;20503;-74
2023/04/28 07:47:57;;;;;;;21.92;14.60;;;;;;;-145.50;100.00;65435.88;5045896;28;20488;-75
2023/04/28 07:50:24;;;;;;;19.15;13.35;;;;;;;-145.50;100.00;65435.88;5030165;28;20056;-75
2023/04/28 07:52:50;;;;;;;20.25;13.63;;;;;;;-145.50;100.00;65435.88;5047857;28;20083;-74
2023/04/28 07:55:17;;;;;;;21.42;13.30;;;;;;;-145.50;100.00;65435.88;5051999;28;20048;-74
2023/04/28 07:57:43;;;;;;;21.83;14.48;;;;;;;-145.50;100.00;65435.88;5038601;28;20056;-75
2023/04/28 08:00:10;;;;;;;17.63;13.27;;;;;;;-145.50;100.00;65435.88;5057959;28;20053;-75
2023/04/28 08:02:37;;;;;;;20.98;13.10;;;;;;;-145.50;100.00;65435.88;5028873;28;20092;-75
2023/04/28 08:05:06;;;;;;;17.60;12.73;;;;;;;-145.50;100.00;65435.88;5041976;28;20041;-74
2023/04/28 08:07:33;;;;;;;17.38;12.43;;;;;;;-145.50;100.00;65435.88;5021181;28;20147;-74
2023/04/28 08:10:00;;;;;;;19.08;12.60;;;;;;;-145.50;100.00;65435.88;5017252;28;20059;-74
2023/04/28 08:12:27;;;;;;;22.58;13.93;;;;;;;-145.50;100.00;65435.88;5021962;28;20490;-75
2023/04/28 08:14:53;;;;;;;18.35;12.68;;;;;;;-145.50;100.00;65435.88;5043047;28;20048;-74
2023/04/28 08:17:20;;;;;;;17.65;13.40;;;;;;;-145.50;100.00;65435.88;5033991;28;20095;-74
2023/04/28 08:19:47;;;;;;;19.00;14.20;;;;;;;-145.50;100.00;65435.88;5050313;28;20128;-74
2023/04/28 08:22:14;;;;;;;19.75;13.02;;;;;;;-145.50;100.00;65435.88;5054525;28;20052;-73
2023/04/28 08:24:41;;;;;;;22.38;14.93;;;;;;;-145.50;100.00;65435.88;5044645;28;20049;-74
2023/04/28 08:27:07;;;;;;;19.33;13.25;;;;;;;-145.50;100.00;65435.88;5035668;28;20044;-74
2023/04/28 08:29:34;;;;;;;19.13;13.18;;;;;;;-145.50;100.00;65435.88;5045982;28;20059;-73
2023/04/28 08:32:01;;;;;;;18.73;13.25;;;;;;;-145.50;100.00;65435.88;5045742;28;20455;-74
2023/04/28 08:34:28;;;;;;;22.00;13.80;;;;;;;-145.50;100.00;65435.88;5049751;28;20426;-75
2023/04/28 08:36:54;;;;;;;19.77;12.40;;;;;;;-145.50;100.00;65435.88;5046652;28;20095;-74
2023/04/28 08:39:22;;;;;;;19.98;13.93;;;;;;;-145.50;100.00;65435.88;5016324;28;20052;-74
2023/04/28 08:41:49;;;;;;;19.87;12.70;;;;;;;-145.50;100.00;65435.88;5043196;28;20135;-74
2023/04/28 08:44:16;;;;;;;23.85;14.85;;;;;;;-145.50;100.00;65435.88;5041393;28;20501;-74
2023/04/28 08:46:44;;;;;;;18.08;13.85;;;;;;;-145.50;100.00;65435.88;5047476;28;20040;-74
2023/04/28 08:49:16;;;;;;;20.80;14.70;;;;;;;-145.50;100.00;65435.88;5044626;28;20511;-74
2023/04/28 08:51:54;;;;;;;17.48;13.40;;;;;;;-145.50;100.00;65435.88;5048277;28;20537;-74
2023/04/28 08:54:22;;;;;;;18.80;11.50;;;;;;;-145.50;100.00;65435.88;5039462;28;20057;-74
2023/04/28 08:56:54;;;;;;;17.73;12.93;;;;;;;-145.50;100.00;65435.88;5049687;28;20135;-75
2023/04/28 08:59:21;;;;;;;;;;;;;;;-145.50;100.00;65435.88;5054037;28;20736;-75
2023/04/28 09:01:48;;;;;;;14.18;10.40;;;;;;;-145.50;100.00;65435.88;5042464;28;19986;-75
2023/04/28 09:04:19;;;;;;;17.83;12.80;;;;;;;-145.50;100.00;65435.88;5050337;28;20045;-74
2023/04/28 09:06:46;;;;;;;14.60;11.13;;;;;;;-145.50;100.00;65435.88;5050064;28;20057;-74
2023/04/28 09:09:29;;;;;;;19.15;12.27;;;;;;;-145.50;100.00;65435.88;5060413;28;20619;-74
2023/04/28 09:12:01;;;;;;;15.10;9.38;;;;;;;-145.50;100.00;65435.88;5049234;28;20045;-73
2023/04/28 09:14:29;;;;;;;16.15;13.15;;;;;;;-145.50;100.00;65435.88;5057462;28;20437;-75
2023/04/28 09:16:56;;;;;;;13.95;10.25;;;;;;;-145.50;100.00;65435.88;5051940;28;20135;-74
2023/04/28 09:19:23;;;;;;;15.18;9.77;;;;;;;-145.50;100.00;65435.88;5049452;28;20139;-74
2023/04/28 09:21:56;;;;;;;15.55;10.52;;;;;;;-145.50;100.00;65435.88;5049914;28;20203;-74
2023/04/28 09:24:28;;;;;;;15.20;10.10;;;;;;;-145.50;100.00;65435.88;5039371;28;20052;-74
2023/04/28 09:26:55;;;;;;;16.75;10.75;;;;;;;-145.50;100.00;65435.88;5060456;28;20072;-74
2023/04/28 09:29:21;;;;;;;16.02;10.63;;;;;;;-145.50;100.00;65435.88;5041455;28;21175;-73
2023/04/28 09:31:48;;;;;;;17.08;11.13;;;;;;;-145.50;100.00;65435.88;5058054;28;20095;-75
2023/04/28 09:34:15;;;;;;;13.07;10.68;;;;;;;-145.50;100.00;65435.88;5049549;28;20128;-74
2023/04/28 09:36:42;;;;;;;14.82;10.32;;;;;;;-145.50;100.00;65435.88;5036596;28;20163;-74
2023/04/28 09:39:08;;;;;;;12.82;10.32;;;;;;;-145.50;100.00;65435.88;5058290;28;20052;-75
2023/04/28 09:41:39;;;;;;;18.23;10.35;;;;;;;-145.50;100.00;65435.88;5043763;28;20500;-74
2023/04/28 09:44:17;;;;;;;16.65;11.82;;;;;;;-145.50;100.00;65435.88;5050706;28;20080;-74
2023/04/28 09:46:45;;;;;;;14.25;10.75;;;;;;;-145.50;100.00;65435.88;5048339;28;20135;-74
2023/04/28 09:49:12;;;;;;;17.08;10.82;;;;;;;-145.50;100.00;65435.88;5057502;28;20082;-74
2023/04/28 09:51:39;;;;;;;14.25;10.30;;;;;;;-145.50;100.00;65435.88;5047429;28;20192;-75
2023/04/28 09:54:06;;;;;;;14.55;11.70;;;;;;;-145.50;100.00;65435.88;5026958;28;20124;-74
2023/04/28 09:56:37;;;;;;;14.55;11.52;;;;;;;-145.50;100.00;65435.88;5057128;28;20055;-74
2023/04/28 09:59:06;;;;;;;15.30;11.55;;;;;;;-145.50;100.00;65435.88;5031657;28;20048;-74
2023/04/28 10:01:39;;;;;;;16.88;11.70;;;;;;;-145.50;100.00;65435.88;5048953;28;20391;-74
2023/04/28 10:04:06;;;;;;;15.50;10.77;;;;;;;-145.50;100.00;65435.88;5021149;28;20189;-74
2023/04/28 10:06:35;;;;;;;18.42;12.73;;;;;;;-145.50;100.00;65435.88;5068715;28;20040;-74
2023/04/28 10:09:02;;;;;;;18.55;13.30;;;;;;;-145.50;100.00;65435.88;5058772;28;20024;-73
2023/04/28 10:11:29;;;;;;;15.50;11.30;;;;;;;-145.50;100.00;65435.88;5037620;28;20699;-74
2023/04/28 10:13:55;;;;;;;17.60;12.60;;;;;;;-145.50;100.00;65435.88;5056707;28;20085;-74
2023/04/28 10:16:23;;;;;;;11.25;9.85;;;;;;;-145.50;100.00;65435.88;5034444;28;20075;-74
2023/04/28 10:18:52;;;;;;;16.85;12.07;;;;;;;-145.50;100.00;65435.88;5044692;28;20079;-74
2023/04/28 10:21:21;;;;;;;16.73;12.98;;;;;;;-145.50;100.00;65435.88;5037078;28;20040;-75
2023/04/28 10:24:10;;;;;;;12.45;10.68;;;;;;;-145.50;100.00;65435.88;5054944;28;20171;-75
2023/04/28 10:27:02;;;;;;;16.00;13.05;;;;;;;-145.50;100.00;65435.88;5063231;28;20036;-74
2023/04/28 10:29:31;;;;;;;14.93;13.32;;;;;;;-145.50;100.00;65435.88;5037609;28;20068;-75
2023/04/28 10:32:21;;;;;;;17.38;14.00;;;;;;;-145.50;100.00;65435.88;5023805;28;20079;-75
2023/04/28 10:34:47;;;;;;;17.70;13.15;;;;;;;-145.50;100.00;65435.88;5051848;28;20049;-74
2023/04/28 10:37:18;;;;;;;18.95;13.82;;;;;;;-145.50;100.00;65435.88;5041742;28;20057;-73
2023/04/28 10:40:33;;;;;;;25.17;15.02;;;;;;;-145.50;100.00;65435.88;5048666;28;20116;-74
2023/04/28 10:43:00;;;;;;;18.02;14.25;;;;;;;-145.50;100.00;65435.88;5007088;28;20124;-74
2023/04/28 10:45:51;;;;;;;16.50;14.15;;;;;;;-145.50;100.00;65435.88;5006161;28;20846;-76
2023/04/28 10:48:48;;;;;;;15.75;13.65;;;;;;;-145.50;100.00;65435.88;5004667;28;20399;-75
2023/04/28 10:51:14;;;;;;;19.13;13.75;;;;;;;-145.50;100.00;65435.88;4993191;28;20058;-75
2023/04/28 10:53:44;;;;;;;16.50;13.88;;;;;;;-145.50;100.00;65435.88;5010574;28;20123;-74
2023/04/28 10:56:18;;;;;;;17.90;14.05;;;;;;;-145.50;100.00;65435.88;4999277;28;20053;-74
2023/04/28 10:58:49;;;;;;;20.25;14.77;;;;;;;-145.50;100.00;65435.88;5003186;28;20539;-74
2023/04/28 11:01:19;;;;;;;15.18;13.05;;;;;;;-145.50;100.00;65435.88;4981923;28;20576;-73
2023/04/28 11:03:49;;;;;;;17.65;13.80;;;;;;;-145.50;100.00;65435.88;4995910;28;20057;-73